createdAt,value
2022-11-22T00:01:52.999Z,2.80
2022-11-22T00:05:56.312Z,2.80
2022-11-22T00:09:59.624Z,2.80
2022-11-22T00:14:02.990Z,2.90
2022-11-22T00:18:07.833Z,2.90
2022-11-22T00:22:11.123Z,2.90
2022-11-22T00:26:14.451Z,3.00
2022-11-22T00:30:21.049Z,3.00
2022-11-22T00:34:28.843Z,3.00
2022-11-22T00:38:32.172Z,2.90
2022-11-22T00:42:35.460Z,3.00
2022-11-22T00:46:38.772Z,3.00
2022-11-22T00:50:43.457Z,3.10
2022-11-22T00:54:53.051Z,3.10
2022-11-22T00:58:58.005Z,3.10
2022-11-22T01:03:01.378Z,3.00
2022-11-22T01:07:06.100Z,3.10
2022-11-22T01:11:09.616Z,3.10
2022-11-22T01:15:13.553Z,3.10
2022-11-22T01:19:17.218Z,3.00
2022-11-22T01:23:22.113Z,3.00
2022-11-22T01:27:25.474Z,2.90
2022-11-22T01:31:30.175Z,2.90
2022-11-22T01:35:33.550Z,3.00
2022-11-22T01:39:38.287Z,3.10
2022-11-22T01:43:41.535Z,3.10
2022-11-22T01:47:44.941Z,3.10
2022-11-22T01:51:51.461Z,3.00
2022-11-22T01:55:58.985Z,3.10
2022-11-22T02:00:06.703Z,3.00
2022-11-22T02:04:13.685Z,3.00
2022-11-22T02:08:22.548Z,2.90
2022-11-22T02:12:30.434Z,3.10
2022-11-22T02:16:35.722Z,3.10
2022-11-22T02:20:40.613Z,3.10
2022-11-22T02:24:51.083Z,3.10
2022-11-22T02:29:01.461Z,3.20
2022-11-22T02:33:04.897Z,3.20
2022-11-22T02:37:08.453Z,3.10
2022-11-22T02:41:13.634Z,3.10
2022-11-22T02:45:19.554Z,3.10
2022-11-22T02:49:25.224Z,3.00
2022-11-22T02:53:31.089Z,3.00
2022-11-22T02:57:34.386Z,3.00
2022-11-22T03:01:39.098Z,3.00
2022-11-22T03:05:42.445Z,3.00
2022-11-22T03:09:45.706Z,3.10
2022-11-22T03:13:48.973Z,3.00
2022-11-22T03:17:58.678Z,3.10
2022-11-22T03:22:02.127Z,3.00
2022-11-22T03:26:09.539Z,3.00
2022-11-22T03:30:13.672Z,3.00
2022-11-22T03:34:19.471Z,3.10
2022-11-22T03:38:22.737Z,3.00
2022-11-22T03:42:26.108Z,3.00
2022-11-22T03:46:29.402Z,3.00
2022-11-22T03:50:34.050Z,3.00
2022-11-22T03:54:37.303Z,3.00
2022-11-22T03:58:40.547Z,3.00
2022-11-22T04:02:43.820Z,3.00
2022-11-22T04:06:48.520Z,3.00
2022-11-22T04:10:52.190Z,3.00
2022-11-22T04:15:10.621Z,3.10
2022-11-22T04:19:13.871Z,3.00
2022-11-22T04:23:19.983Z,3.10
2022-11-22T04:27:23.294Z,3.00
2022-11-22T04:31:44.188Z,3.00
2022-11-22T04:35:47.592Z,3.00
2022-11-22T04:39:52.502Z,3.00
2022-11-22T04:44:13.520Z,2.90
2022-11-22T04:48:16.946Z,3.00
2022-11-22T04:52:37.750Z,2.90
2022-11-22T04:56:43.168Z,2.90
2022-11-22T05:00:46.859Z,2.90
2022-11-22T05:04:50.875Z,2.90
2022-11-22T05:08:54.407Z,2.90
2022-11-22T05:12:59.074Z,3.10
2022-11-22T05:17:02.320Z,3.10
2022-11-22T05:21:06.753Z,3.10
2022-11-22T05:25:16.146Z,3.00
2022-11-22T05:29:20.876Z,2.90
2022-11-22T05:33:24.194Z,2.90
2022-11-22T05:37:27.750Z,2.90
2022-11-22T05:41:31.074Z,2.90
2022-11-22T05:45:36.382Z,2.90
2022-11-22T05:49:40.324Z,2.80
2022-11-22T05:53:44.459Z,2.80
2022-11-22T05:57:47.783Z,2.80
2022-11-22T06:01:52.514Z,2.90
2022-11-22T06:05:55.881Z,2.90
2022-11-22T06:09:59.235Z,2.90
2022-11-22T06:14:04.354Z,2.90
2022-11-22T06:18:09.102Z,2.90
2022-11-22T06:22:12.396Z,2.90
2022-11-22T06:26:18.208Z,2.90
2022-11-22T06:30:21.586Z,2.90
2022-11-22T06:34:26.344Z,3.00
2022-11-22T06:38:29.619Z,3.00
2022-11-22T06:42:32.882Z,3.10
2022-11-22T06:46:36.959Z,3.20
2022-11-22T06:50:41.646Z,3.30
2022-11-22T06:54:45.132Z,3.30
2022-11-22T06:58:49.566Z,3.30
2022-11-22T07:02:52.979Z,3.30
2022-11-22T07:06:57.694Z,3.20
2022-11-22T07:11:03.914Z,3.40
2022-11-22T07:15:08.107Z,3.50
2022-11-22T07:19:11.710Z,3.50
2022-11-22T07:23:16.741Z,3.60
2022-11-22T07:27:20.038Z,3.70
2022-11-22T07:31:23.439Z,3.70
2022-11-22T07:35:26.732Z,3.80
2022-11-22T07:39:31.577Z,3.80
2022-11-22T07:43:35.268Z,3.90
2022-11-22T07:47:38.507Z,4.00
2022-11-22T07:51:41.816Z,4.10
2022-11-22T07:55:46.646Z,4.10
2022-11-22T07:59:49.955Z,4.30
2022-11-22T08:03:53.512Z,4.40
2022-11-22T08:07:56.802Z,4.50
2022-11-22T08:12:01.519Z,4.60
2022-11-22T08:16:07.521Z,4.80
2022-11-22T08:20:11.882Z,4.90
2022-11-22T08:24:15.567Z,5.00
2022-11-22T08:28:20.251Z,5.10
2022-11-22T08:32:23.655Z,4.90
2022-11-22T08:36:27.608Z,5.00
2022-11-22T08:40:30.953Z,5.00
2022-11-22T08:44:35.710Z,4.80
2022-11-22T08:48:39.703Z,4.80
2022-11-22T08:52:43.000Z,5.00
2022-11-22T08:56:46.297Z,4.90
2022-11-22T09:00:51.091Z,4.80
2022-11-22T09:04:57.444Z,4.90
2022-11-22T09:09:36.454Z,4.90
2022-11-22T09:13:24.124Z,5.00
2022-11-22T09:17:28.811Z,5.20
2022-11-22T09:21:32.089Z,5.30
2022-11-22T09:25:39.537Z,5.50
2022-11-22T09:29:42.823Z,5.60
2022-11-22T09:33:49.545Z,5.70
2022-11-22T09:37:52.905Z,5.90
2022-11-22T09:42:17.532Z,5.90
2022-11-22T09:46:30.070Z,5.90
2022-11-22T09:50:43.236Z,6.20
2022-11-22T09:54:55.127Z,6.70
2022-11-22T09:59:04.910Z,6.50
2022-11-22T10:03:17.077Z,6.40
2022-11-22T10:07:28.758Z,6.40
2022-11-22T10:11:39.596Z,6.40
2022-11-22T10:15:51.391Z,6.50
2022-11-22T10:20:03.097Z,6.70
2022-11-22T10:24:12.091Z,6.60
2022-11-22T10:28:19.591Z,6.70
2022-11-22T10:32:28.989Z,6.80
2022-11-22T10:36:41.215Z,6.90
2022-11-22T10:40:53.152Z,6.70
2022-11-22T10:45:11.350Z,6.80
2022-11-22T10:49:23.126Z,6.70
2022-11-22T10:53:40.090Z,7.00
2022-11-22T10:57:50.179Z,6.90
2022-11-22T11:02:04.463Z,6.70
2022-11-22T11:06:24.283Z,6.80
2022-11-22T11:10:37.813Z,7.20
2022-11-22T11:14:54.416Z,7.60
2022-11-22T11:19:06.588Z,7.60
2022-11-22T11:23:15.500Z,7.60
2022-11-22T11:27:22.159Z,8.10
2022-11-22T11:31:43.488Z,8.40
2022-11-22T11:35:47.611Z,8.10
2022-11-22T11:39:51.337Z,7.80
2022-11-22T11:43:56.422Z,7.50
2022-11-22T11:48:01.207Z,7.30
2022-11-22T11:52:08.791Z,7.30
2022-11-22T11:56:27.474Z,7.40
2022-11-22T12:00:39.740Z,7.60
2022-11-22T12:04:51.561Z,7.60
2022-11-22T12:08:55.143Z,7.30
2022-11-22T12:13:04.880Z,7.00
2022-11-22T12:17:17.656Z,6.60
2022-11-22T12:21:30.325Z,6.60
2022-11-22T12:25:37.290Z,6.80
2022-11-22T12:29:43.832Z,7.00
2022-11-22T12:33:51.883Z,7.10
2022-11-22T12:38:01.533Z,7.10
2022-11-22T12:42:10.857Z,7.10
2022-11-22T12:46:55.998Z,7.10
2022-11-22T12:51:04.733Z,6.90
2022-11-22T12:55:19.213Z,6.90
2022-11-22T12:59:29.354Z,6.80
2022-11-22T13:03:38.769Z,6.30
2022-11-22T13:07:56.089Z,5.80
2022-11-22T13:12:03.609Z,5.50
2022-11-22T13:16:10.766Z,5.20
2022-11-22T13:20:19.424Z,5.10
2022-11-22T13:24:33.346Z,4.90
2022-11-22T13:28:40.503Z,4.80
2022-11-22T13:32:44.208Z,4.80
2022-11-22T13:36:49.244Z,4.80
2022-11-22T13:40:52.739Z,4.80
2022-11-22T13:45:25.073Z,4.60
2022-11-22T13:49:45.086Z,4.50
2022-11-22T13:54:12.756Z,4.40
2022-11-22T13:58:51.132Z,4.40
2022-11-22T14:03:12.700Z,4.30
2022-11-22T14:07:28.638Z,4.30
2022-11-22T14:11:43.228Z,4.30
2022-11-22T14:15:53.892Z,4.30
2022-11-22T14:20:11.392Z,4.30
2022-11-22T14:24:25.687Z,4.30
2022-11-22T14:29:12.998Z,4.30
2022-11-22T14:33:18.859Z,4.30
2022-11-22T14:37:48.289Z,4.30
2022-11-22T14:41:51.896Z,4.40
2022-11-22T14:45:59.539Z,4.50
2022-11-22T14:50:05.647Z,4.50
2022-11-22T14:54:22.432Z,4.50
2022-11-22T14:58:30.295Z,4.50
2022-11-22T15:03:12.977Z,4.50
2022-11-22T15:09:19.916Z,4.50
2022-11-22T15:12:40.365Z,4.40
2022-11-22T16:01:19.237Z,4.30
2022-11-22T16:06:07.875Z,4.30
2022-11-22T16:09:56.487Z,4.40
2022-11-22T16:14:00.530Z,4.30
2022-11-22T16:18:18.396Z,4.40
2022-11-22T16:22:32.745Z,4.30
2022-11-22T16:26:36.709Z,4.30
2022-11-22T16:30:44.431Z,4.30
2022-11-22T16:35:03.143Z,4.30
2022-11-22T16:39:17.115Z,4.40
2022-11-22T16:43:23.809Z,4.40
2022-11-22T16:47:28.118Z,4.50
2022-11-22T16:51:33.370Z,4.40
2022-11-22T16:55:38.621Z,4.30
2022-11-22T16:59:42.903Z,4.30
2022-11-22T17:03:48.284Z,4.30
2022-11-22T17:07:53.084Z,4.30
2022-11-22T17:11:58.415Z,4.30
2022-11-22T17:16:02.757Z,4.30
2022-11-22T17:20:08.355Z,4.30
2022-11-22T17:24:21.060Z,4.30
2022-11-22T17:28:26.198Z,4.30
2022-11-22T17:32:30.718Z,4.20
2022-11-22T17:36:36.831Z,4.20
2022-11-22T17:40:42.627Z,4.20
2022-11-22T17:44:48.593Z,4.10
2022-11-22T17:48:54.737Z,4.00
2022-11-22T17:52:59.570Z,4.00
2022-11-22T17:57:04.140Z,3.90
2022-11-22T18:01:14.980Z,4.00
2022-11-22T18:05:20.319Z,4.00
2022-11-22T18:09:24.970Z,3.90
2022-11-22T18:13:30.457Z,4.00
2022-11-22T18:17:43.089Z,4.00
2022-11-22T18:22:14.091Z,4.00
2022-11-22T18:30:51.705Z,3.90
2022-11-22T18:34:59.462Z,3.90
2022-11-22T18:39:06.662Z,4.00
2022-11-22T18:43:15.050Z,4.00
2022-11-22T18:47:19.863Z,4.00
2022-11-22T18:51:25.996Z,4.00
2022-11-22T18:55:34.195Z,4.10
2022-11-22T18:59:44.897Z,4.00
2022-11-22T19:03:57.819Z,4.00
2022-11-22T19:08:16.913Z,4.00
2022-11-22T19:12:23.414Z,4.10
2022-11-22T19:16:36.384Z,4.00
2022-11-22T19:20:55.041Z,4.10
2022-11-22T19:25:12.277Z,4.10
2022-11-22T19:29:26.304Z,4.00
2022-11-22T19:34:07.141Z,4.00
2022-11-22T19:38:38.354Z,4.10
2022-11-22T19:43:16.324Z,4.00
2022-11-22T19:47:55.698Z,4.00
2022-11-22T19:52:19.072Z,4.00
2022-11-22T20:01:44.875Z,4.10
2022-11-22T20:10:38.545Z,4.00
2022-11-22T20:14:51.988Z,4.00
2022-11-22T20:19:03.662Z,4.00
2022-11-22T20:23:09.766Z,4.10
2022-11-22T20:27:23.167Z,4.00
2022-11-22T20:31:38.277Z,4.00
2022-11-22T20:35:51.993Z,4.10
2022-11-22T20:40:01.920Z,4.00
2022-11-22T20:44:26.832Z,4.00
2022-11-22T20:49:05.540Z,4.10
2022-11-22T20:53:49.151Z,4.00
2022-11-22T20:58:03.499Z,4.00
2022-11-22T21:02:15.679Z,4.10
2022-11-22T21:06:32.171Z,4.00
2022-11-22T21:10:47.067Z,4.00
2022-11-22T21:15:13.722Z,4.00
2022-11-22T21:19:26.082Z,4.10
2022-11-22T21:23:29.764Z,4.10
2022-11-22T21:27:35.435Z,4.00
2022-11-22T21:31:41.339Z,4.00
2022-11-22T21:35:45.817Z,4.00
2022-11-22T21:39:49.689Z,4.00
2022-11-22T21:44:01.310Z,4.10
2022-11-22T21:48:04.822Z,4.10
2022-11-22T21:52:08.145Z,4.10
2022-11-22T21:56:11.463Z,4.00
2022-11-22T22:00:17.713Z,4.00
2022-11-22T22:04:21.093Z,4.00
2022-11-22T22:08:26.447Z,4.00
2022-11-22T22:12:29.808Z,4.10
2022-11-22T22:16:34.551Z,4.00
2022-11-22T22:20:37.796Z,4.00
2022-11-22T22:24:41.046Z,4.00
2022-11-22T22:28:45.515Z,4.10
2022-11-22T22:32:50.193Z,4.10
2022-11-22T22:36:53.548Z,4.10
2022-11-22T22:40:57.908Z,4.10
2022-11-22T22:45:01.141Z,4.00
2022-11-22T22:49:08.891Z,4.00
2022-11-22T22:53:12.215Z,4.10
2022-11-22T22:57:15.495Z,4.10
2022-11-22T23:01:20.540Z,4.10
2022-11-22T23:05:26.370Z,4.00
2022-11-22T23:09:29.956Z,4.10
2022-11-22T23:13:35.735Z,4.10
2022-11-22T23:17:39.153Z,4.00
2022-11-22T23:21:43.883Z,4.00
2022-11-22T23:25:47.243Z,4.10
2022-11-22T23:29:50.548Z,4.10
2022-11-22T23:33:53.864Z,4.10
2022-11-22T23:37:58.570Z,4.00
2022-11-22T23:42:01.895Z,4.00
2022-11-22T23:46:05.445Z,4.00
2022-11-22T23:50:09.672Z,4.00
2022-11-22T23:54:14.598Z,4.00
2022-11-22T23:58:17.921Z,3.90
